sensor_id;sensor_type;location;lat;lon;timestamp;P1;durP1;ratioP1;P2;durP2;ratioP2
57299;SDS011;43148;50.966;18.198;2024-03-23T00:57:26;13.40;;;12.10;;
57299;SDS011;43148;50.966;18.198;2024-03-23T01:07:08;11.90;;;11.00;;
57299;SDS011;43148;50.966;18.198;2024-03-23T01:16:57;11.30;;;10.50;;
57299;SDS011;43148;50.966;18.198;2024-03-23T01:26:40;16.40;;;15.20;;
57299;SDS011;43148;50.966;18.198;2024-03-23T01:36:23;15.80;;;14.70;;
57299;SDS011;43148;50.966;18.198;2024-03-23T01:46:09;23.00;;;11.00;;
57299;SDS011;43148;50.966;18.198;2024-03-23T01:55:55;16.80;;;15.40;;
57299;SDS011;43148;50.966;18.198;2024-03-23T02:05:49;19.30;;;17.40;;
57299;SDS011;43148;50.966;18.198;2024-03-23T02:15:37;19.50;;;17.70;;
57299;SDS011;43148;50.966;18.198;2024-03-23T02:25:22;17.00;;;15.60;;
57299;SDS011;43148;50.966;18.198;2024-03-23T02:35:05;15.80;;;14.80;;
57299;SDS011;43148;50.966;18.198;2024-03-23T02:44:52;17.50;;;16.20;;
57299;SDS011;43148;50.966;18.198;2024-03-23T02:54:34;16.50;;;15.30;;
57299;SDS011;43148;50.966;18.198;2024-03-23T03:04:16;16.60;;;15.20;;
57299;SDS011;43148;50.966;18.198;2024-03-23T03:14:05;15.10;;;13.30;;
57299;SDS011;43148;50.966;18.198;2024-03-23T03:31:08;17.50;;;16.10;;
57299;SDS011;43148;50.966;18.198;2024-03-23T03:40:51;6.70;;;6.30;;
57299;SDS011;43148;50.966;18.198;2024-03-23T03:50:42;6.50;;;6.00;;
57299;SDS011;43148;50.966;18.198;2024-03-23T04:00:25;15.10;;;13.90;;
57299;SDS011;43148;50.966;18.198;2024-03-23T04:10:45;14.60;;;13.60;;
57299;SDS011;43148;50.966;18.198;2024-03-23T04:35:07;16.20;;;14.80;;
57299;SDS011;43148;50.966;18.198;2024-03-23T04:45:00;23.30;;;12.20;;
57299;SDS011;43148;50.966;18.198;2024-03-23T04:54:43;17.30;;;16.00;;
57299;SDS011;43148;50.966;18.198;2024-03-23T05:04:28;12.00;;;11.00;;
57299;SDS011;43148;50.966;18.198;2024-03-23T05:14:12;13.90;;;12.80;;
57299;SDS011;43148;50.966;18.198;2024-03-23T05:23:55;12.00;;;11.20;;
57299;SDS011;43148;50.966;18.198;2024-03-23T05:33:51;11.20;;;10.60;;
57299;SDS011;43148;50.966;18.198;2024-03-23T05:43:41;11.00;;;10.40;;
57299;SDS011;43148;50.966;18.198;2024-03-23T05:53:26;11.30;;;10.70;;
57299;SDS011;43148;50.966;18.198;2024-03-23T06:03:22;15.00;;;13.80;;
57299;SDS011;43148;50.966;18.198;2024-03-23T06:13:05;11.90;;;11.10;;
57299;SDS011;43148;50.966;18.198;2024-03-23T06:22:49;13.40;;;12.40;;
57299;SDS011;43148;50.966;18.198;2024-03-23T06:32:34;13.80;;;12.80;;
57299;SDS011;43148;50.966;18.198;2024-03-23T06:42:19;14.80;;;13.80;;
57299;SDS011;43148;50.966;18.198;2024-03-23T06:52:03;15.70;;;14.10;;
57299;SDS011;43148;50.966;18.198;2024-03-23T07:01:45;17.20;;;15.60;;
57299;SDS011;43148;50.966;18.198;2024-03-23T07:11:35;12.30;;;11.20;;
57299;SDS011;43148;50.966;18.198;2024-03-23T07:21:22;17.40;;;15.70;;
57299;SDS011;43148;50.966;18.198;2024-03-23T07:31:12;13.90;;;12.70;;
57299;SDS011;43148;50.966;18.198;2024-03-23T07:41:09;8.50;;;7.70;;
57299;SDS011;43148;50.966;18.198;2024-03-23T07:51:04;31.50;;;28.30;;
57299;SDS011;43148;50.966;18.198;2024-03-23T08:00:49;66.60;;;40.30;;
57299;SDS011;43148;50.966;18.198;2024-03-23T08:10:32;8.40;;;7.70;;
57299;SDS011;43148;50.966;18.198;2024-03-23T08:20:15;21.00;;;18.90;;
57299;SDS011;43148;50.966;18.198;2024-03-23T08:29:58;33.70;;;30.40;;
57299;SDS011;43148;50.966;18.198;2024-03-23T08:39:43;14.50;;;13.50;;
57299;SDS011;43148;50.966;18.198;2024-03-23T08:49:26;15.40;;;14.40;;
57299;SDS011;43148;50.966;18.198;2024-03-23T08:59:10;7.00;;;6.60;;
57299;SDS011;43148;50.966;18.198;2024-03-23T09:08:55;14.30;;;13.40;;
57299;SDS011;43148;50.966;18.198;2024-03-23T09:18:37;7.60;;;7.10;;
57299;SDS011;43148;50.966;18.198;2024-03-23T09:28:21;7.90;;;7.40;;
57299;SDS011;43148;50.966;18.198;2024-03-23T09:38:05;5.40;;;4.00;;
57299;SDS011;43148;50.966;18.198;2024-03-23T09:47:53;7.10;;;6.70;;
57299;SDS011;43148;50.966;18.198;2024-03-23T09:57:37;5.30;;;5.00;;
57299;SDS011;43148;50.966;18.198;2024-03-23T10:07:23;5.70;;;5.30;;
57299;SDS011;43148;50.966;18.198;2024-03-23T10:17:16;7.80;;;7.30;;
57299;SDS011;43148;50.966;18.198;2024-03-23T10:27:01;6.70;;;6.20;;
57299;SDS011;43148;50.966;18.198;2024-03-23T10:36:51;6.30;;;6.00;;
57299;SDS011;43148;50.966;18.198;2024-03-23T10:46:43;6.20;;;5.80;;
57299;SDS011;43148;50.966;18.198;2024-03-23T10:56:31;6.10;;;5.60;;
57299;SDS011;43148;50.966;18.198;2024-03-23T11:06:37;5.50;;;5.10;;
57299;SDS011;43148;50.966;18.198;2024-03-23T11:26:48;2.40;;;2.30;;
57299;SDS011;43148;50.966;18.198;2024-03-23T11:34:15;0.60;;;0.60;;
57299;SDS011;43148;50.966;18.198;2024-03-23T11:44:19;0.50;;;0.50;;
57299;SDS011;43148;50.966;18.198;2024-03-23T11:54:24;0.30;;;0.30;;
57299;SDS011;43148;50.966;18.198;2024-03-23T12:04:28;4.00;;;3.70;;
57299;SDS011;43148;50.966;18.198;2024-03-23T12:14:42;4.00;;;3.00;;
57299;SDS011;43148;50.966;18.198;2024-03-23T12:24:29;3.90;;;3.60;;
57299;SDS011;43148;50.966;18.198;2024-03-23T12:41:35;5.50;;;5.00;;
57299;SDS011;43148;50.966;18.198;2024-03-23T12:51:26;22.00;;;11.70;;
57299;SDS011;43148;50.966;18.198;2024-03-23T13:01:18;8.70;;;8.40;;
57299;SDS011;43148;50.966;18.198;2024-03-23T13:18:32;7.80;;;7.10;;
57299;SDS011;43148;50.966;18.198;2024-03-23T13:28:18;6.80;;;6.40;;
57299;SDS011;43148;50.966;18.198;2024-03-23T13:38:22;7.40;;;6.90;;
57299;SDS011;43148;50.966;18.198;2024-03-23T13:48:18;6.60;;;6.30;;
57299;SDS011;43148;50.966;18.198;2024-03-23T13:58:18;5.90;;;5.50;;
57299;SDS011;43148;50.966;18.198;2024-03-23T14:08:09;5.10;;;4.80;;
57299;SDS011;43148;50.966;18.198;2024-03-23T14:17:56;6.50;;;4.20;;
57299;SDS011;43148;50.966;18.198;2024-03-23T14:27:44;7.40;;;6.90;;
57299;SDS011;43148;50.966;18.198;2024-03-23T14:37:41;8.00;;;7.50;;
57299;SDS011;43148;50.966;18.198;2024-03-23T14:47:32;5.60;;;5.20;;
57299;SDS011;43148;50.966;18.198;2024-03-23T14:57:18;5.00;;;4.70;;
57299;SDS011;43148;50.966;18.198;2024-03-23T15:07:05;7.70;;;7.20;;
57299;SDS011;43148;50.966;18.198;2024-03-23T15:16:51;5.30;;;5.00;;
57299;SDS011;43148;50.966;18.198;2024-03-23T15:26:37;4.70;;;4.40;;
57299;SDS011;43148;50.966;18.198;2024-03-23T15:36:26;3.80;;;2.70;;
57299;SDS011;43148;50.966;18.198;2024-03-23T15:46:15;2.70;;;2.60;;
57299;SDS011;43148;50.966;18.198;2024-03-23T15:56:05;2.30;;;2.20;;
57299;SDS011;43148;50.966;18.198;2024-03-23T16:06:10;5.00;;;4.60;;
57299;SDS011;43148;50.966;18.198;2024-03-23T16:16:04;3.30;;;3.10;;
57299;SDS011;43148;50.966;18.198;2024-03-23T16:25:53;2.70;;;2.60;;
57299;SDS011;43148;50.966;18.198;2024-03-23T16:35:55;2.20;;;2.10;;
57299;SDS011;43148;50.966;18.198;2024-03-23T16:45:58;2.60;;;2.50;;
57299;SDS011;43148;50.966;18.198;2024-03-23T17:03:50;3.40;;;3.20;;
57299;SDS011;43148;50.966;18.198;2024-03-23T17:13:35;3.90;;;3.60;;
57299;SDS011;43148;50.966;18.198;2024-03-23T17:23:23;3.40;;;3.10;;
57299;SDS011;43148;50.966;18.198;2024-03-23T17:33:07;4.30;;;4.00;;
57299;SDS011;43148;50.966;18.198;2024-03-23T17:42:51;3.40;;;3.30;;
57299;SDS011;43148;50.966;18.198;2024-03-23T17:52:37;4.20;;;4.00;;
57299;SDS011;43148;50.966;18.198;2024-03-23T18:02:20;3.30;;;3.20;;
57299;SDS011;43148;50.966;18.198;2024-03-23T18:12:05;4.20;;;4.00;;
57299;SDS011;43148;50.966;18.198;2024-03-23T18:22:26;3.80;;;3.50;;
57299;SDS011;43148;50.966;18.198;2024-03-23T18:32:09;3.60;;;3.40;;
57299;SDS011;43148;50.966;18.198;2024-03-23T18:49:12;1.40;;;1.30;;
57299;SDS011;43148;50.966;18.198;2024-03-23T18:59:01;3.20;;;3.00;;
57299;SDS011;43148;50.966;18.198;2024-03-23T19:08:43;3.20;;;3.00;;
57299;SDS011;43148;50.966;18.198;2024-03-23T19:18:27;4.60;;;4.20;;
57299;SDS011;43148;50.966;18.198;2024-03-23T19:28:41;2.60;;;2.40;;
57299;SDS011;43148;50.966;18.198;2024-03-23T19:38:24;3.00;;;2.90;;
57299;SDS011;43148;50.966;18.198;2024-03-23T19:48:20;2.30;;;2.10;;
57299;SDS011;43148;50.966;18.198;2024-03-23T19:58:25;2.80;;;1.00;;
57299;SDS011;43148;50.966;18.198;2024-03-23T20:08:07;4.20;;;3.80;;
57299;SDS011;43148;50.966;18.198;2024-03-23T20:17:55;5.10;;;4.60;;
57299;SDS011;43148;50.966;18.198;2024-03-23T20:27:41;4.20;;;3.80;;
57299;SDS011;43148;50.966;18.198;2024-03-23T20:37:28;3.00;;;2.50;;
57299;SDS011;43148;50.966;18.198;2024-03-23T20:47:11;4.70;;;4.30;;
57299;SDS011;43148;50.966;18.198;2024-03-23T20:57:00;22.10;;;17.70;;
57299;SDS011;43148;50.966;18.198;2024-03-23T21:06:43;10.50;;;8.40;;
57299;SDS011;43148;50.966;18.198;2024-03-23T21:16:30;8.20;;;7.60;;
57299;SDS011;43148;50.966;18.198;2024-03-23T21:26:13;12.10;;;10.40;;
57299;SDS011;43148;50.966;18.198;2024-03-23T21:35:57;5.70;;;5.10;;
57299;SDS011;43148;50.966;18.198;2024-03-23T21:45:52;4.70;;;3.90;;
57299;SDS011;43148;50.966;18.198;2024-03-23T21:55:35;6.50;;;6.00;;
57299;SDS011;43148;50.966;18.198;2024-03-23T22:05:18;10.40;;;7.90;;
57299;SDS011;43148;50.966;18.198;2024-03-23T22:15:01;7.30;;;6.80;;
57299;SDS011;43148;50.966;18.198;2024-03-23T22:24:47;11.80;;;9.50;;
57299;SDS011;43148;50.966;18.198;2024-03-23T22:34:36;11.70;;;10.70;;
57299;SDS011;43148;50.966;18.198;2024-03-23T22:51:46;8.10;;;7.40;;
57299;SDS011;43148;50.966;18.198;2024-03-23T23:01:28;12.20;;;10.20;;
57299;SDS011;43148;50.966;18.198;2024-03-23T23:11:14;8.80;;;7.90;;
57299;SDS011;43148;50.966;18.198;2024-03-23T23:21:00;10.90;;;9.90;;
57299;SDS011;43148;50.966;18.198;2024-03-23T23:30:57;8.60;;;7.70;;
57299;SDS011;43148;50.966;18.198;2024-03-23T23:40:41;21.70;;;12.30;;
57299;SDS011;43148;50.966;18.198;2024-03-23T23:50:24;9.60;;;8.80;;
